Time;durP1;ratioP1;P1;durP2;ratioP2;P2;SDS_P1;SDS_P2;PMS_P1;PMS_P2;Temp;Humidity;BMP_temperature;BMP_pressure;BME280_temperature;BME280_humidity;BME280_pressure;Samples;Min_cycle;Max_cycle;Signal;HPM_P1;HPM_P2
2021/01/08 00:00:58;;;;;;;6.60;2.95;;;1.40;93.70;;;;;;5062754;28;20075;-85
2021/01/08 00:03:25;;;;;;;9.40;3.28;;;1.40;94.00;;;;;;5066398;28;20053;-83
2021/01/08 00:05:52;;;;;;;8.30;3.42;;;1.40;93.90;;;;;;5071158;28;20083;-85
2021/01/08 00:08:20;;;;;;;7.47;3.53;;;1.40;94.00;;;;;;5064769;28;20344;-81
2021/01/08 00:10:48;;;;;;;11.57;3.85;;;1.50;93.70;;;;;;5063790;28;20124;-84
2021/01/08 00:13:15;;;;;;;7.10;4.03;;;1.50;93.60;;;;;;5049021;28;20072;-84
2021/01/08 00:15:43;;;;;;;8.70;3.78;;;1.40;93.80;;;;;;5062484;28;20049;-80
2021/01/08 00:18:11;;;;;;;16.20;4.13;;;1.40;93.80;;;;;;5068557;28;20048;-80
2021/01/08 00:20:38;;;;;;;7.80;2.72;;;1.40;93.90;;;;;;5065402;28;20053;-80
2021/01/08 00:23:06;;;;;;;9.68;3.33;;;1.40;93.80;;;;;;5047239;28;20049;-85
2021/01/08 00:25:34;;;;;;;7.05;3.40;;;1.40;93.70;;;;;;5065756;28;20130;-84
2021/01/08 00:28:01;;;;;;;9.70;3.78;;;1.40;93.70;;;;;;5045442;28;20037;-83
2021/01/08 00:30:28;;;;;;;8.30;4.25;;;1.40;93.40;;;;;;5043783;28;20069;-84
2021/01/08 00:32:55;;;;;;;5.35;3.17;;;1.40;93.70;;;;;;5054276;28;20037;-83
2021/01/08 00:35:24;;;;;;;8.55;3.85;;;1.40;93.70;;;;;;5060741;28;20053;-81
2021/01/08 00:37:51;;;;;;;6.90;2.90;;;1.40;93.70;;;;;;5047668;28;20075;-81
2021/01/08 00:40:18;;;;;;;8.45;3.55;;;1.40;93.60;;;;;;5061442;28;20067;-84
2021/01/08 00:42:48;;;;;;;13.10;3.30;;;1.40;93.30;;;;;;5064749;28;20336;-83
2021/01/08 00:45:23;;;;;;;9.23;3.22;;;1.40;93.40;;;;;;5057776;28;20367;-80
2021/01/08 00:47:50;;;;;;;7.45;3.15;;;1.40;93.40;;;;;;5064748;28;20334;-84
2021/01/08 00:50:18;;;;;;;7.93;3.50;;;1.50;93.10;;;;;;5047682;28;20066;-79
2021/01/08 00:52:45;;;;;;;6.25;2.95;;;1.50;93.10;;;;;;5060452;28;20053;-81
2021/01/08 00:55:12;;;;;;;8.23;2.70;;;1.50;92.80;;;;;;5044796;28;20053;-80
2021/01/08 00:57:52;;;;;;;7.03;3.78;;;1.50;92.90;;;;;;5063757;28;20326;-83
2021/01/08 01:00:20;;;;;;;6.15;2.95;;;1.40;93.10;;;;;;5043666;28;20061;-84
2021/01/08 01:02:49;;;;;;;13.43;4.03;;;1.40;93.10;;;;;;5059353;28;20061;-82
2021/01/08 01:05:17;;;;;;;8.82;3.63;;;1.30;93.30;;;;;;5066857;28;20260;-81
2021/01/08 01:07:44;;;;;;;9.13;3.40;;;1.40;93.10;;;;;;5061532;28;20052;-83
2021/01/08 01:10:13;;;;;;;7.80;3.60;;;1.40;93.00;;;;;;5061994;28;20374;-82
2021/01/08 01:12:41;;;;;;;7.63;3.97;;;1.40;92.90;;;;;;5043920;28;20248;-81
2021/01/08 01:15:08;;;;;;;6.57;2.97;;;1.30;92.90;;;;;;5063543;28;20071;-83
2021/01/08 01:17:40;;;;;;;7.47;3.90;;;1.40;93.10;;;;;;5063233;28;20079;-82
2021/01/08 01:20:08;;;;;;;9.73;3.58;;;1.40;93.40;;;;;;5061288;28;20094;-83
2021/01/08 01:22:35;;;;;;;5.93;3.03;;;1.30;93.30;;;;;;5061869;28;20056;-82
2021/01/08 01:25:02;;;;;;;12.52;3.90;;;1.40;93.10;;;;;;5039149;28;20111;-82
2021/01/08 01:27:30;;;;;;;5.35;2.72;;;1.30;93.20;;;;;;5043780;28;20532;-83
2021/01/08 01:29:57;;;;;;;10.57;4.38;;;1.30;93.60;;;;;;5058996;28;20083;-82
2021/01/08 01:32:23;;;;;;;5.85;3.35;;;1.30;93.60;;;;;;5055781;28;20061;-80
2021/01/08 01:34:50;;;;;;;8.77;3.58;;;1.30;93.50;;;;;;5055393;28;20057;-82
2021/01/08 01:37:17;;;;;;;9.40;3.95;;;1.20;93.70;;;;;;5060137;28;20049;-84
2021/01/08 01:39:44;;;;;;;9.05;3.60;;;1.20;93.70;;;;;;5057678;28;20390;-82
2021/01/08 01:42:11;;;;;;;10.43;3.88;;;1.20;93.90;;;;;;5046803;28;20542;-82
2021/01/08 01:44:39;;;;;;;9.73;3.67;;;1.20;93.90;;;;;;5058466;28;20084;-84
2021/01/08 01:47:07;;;;;;;7.15;3.58;;;1.20;93.70;;;;;;5042787;28;20240;-84
2021/01/08 01:49:35;;;;;;;14.40;3.83;;;1.20;93.80;;;;;;5057906;28;20335;-82
2021/01/08 01:52:04;;;;;;;6.30;3.08;;;1.10;94.30;;;;;;5040292;28;20052;-81
2021/01/08 01:54:30;;;;;;;7.28;3.03;;;1.20;94.30;;;;;;5045032;28;20056;-82
2021/01/08 01:56:58;;;;;;;11.85;4.40;;;1.20;94.30;;;;;;5057826;28;20057;-82
2021/01/08 01:59:26;;;;;;;9.18;3.60;;;1.20;94.40;;;;;;5061802;28;20107;-82
2021/01/08 02:01:53;;;;;;;6.00;3.28;;;1.10;94.50;;;;;;5060061;28;20070;-83
2021/01/08 02:04:21;;;;;;;5.95;2.15;;;1.10;94.50;;;;;;5063604;28;20064;-83
2021/01/08 02:06:51;;;;;;;9.88;3.05;;;1.10;94.60;;;;;;5060122;28;20075;-84
2021/01/08 02:09:19;;;;;;;7.35;3.67;;;1.20;94.40;;;;;;5061349;28;20044;-81
2021/01/08 02:11:51;;;;;;;7.20;3.10;;;1.10;94.60;;;;;;5044538;28;20045;-86
2021/01/08 02:14:22;;;;;;;8.75;3.90;;;1.10;94.90;;;;;;5054531;28;20061;-81
2021/01/08 02:16:51;;;;;;;11.30;3.05;;;1.10;94.70;;;;;;5057827;28;20048;-81
2021/01/08 02:19:25;;;;;;;6.53;3.35;;;1.10;94.40;;;;;;5062322;28;20072;-82
2021/01/08 02:21:56;;;;;;;7.25;3.65;;;1.20;94.10;;;;;;5055875;28;20136;-83
2021/01/08 02:24:28;;;;;;;7.47;3.28;;;1.10;94.00;;;;;;5055632;28;20162;-83
2021/01/08 02:26:57;;;;;;;6.80;3.10;;;1.10;94.40;;;;;;5059346;28;20127;-81
2021/01/08 02:29:24;;;;;;;11.55;3.33;;;1.00;94.50;;;;;;5053983;28;20260;-81
2021/01/08 02:31:52;;;;;;;6.95;3.88;;;1.10;94.50;;;;;;5039980;28;20144;-85
2021/01/08 02:34:19;;;;;;;9.77;3.70;;;1.10;94.50;;;;;;5061689;28;20065;-83
2021/01/08 02:36:47;;;;;;;9.07;3.50;;;1.10;94.30;;;;;;5052356;28;20049;-82
2021/01/08 02:39:14;;;;;;;6.85;2.90;;;1.00;94.80;;;;;;5075002;28;20075;-82
2021/01/08 02:41:45;;;;;;;11.23;4.40;;;1.00;94.80;;;;;;5054553;28;20065;-84
2021/01/08 02:44:15;;;;;;;6.72;3.60;;;1.10;94.60;;;;;;5043157;28;20049;-83
2021/01/08 02:46:42;;;;;;;9.90;3.67;;;1.10;94.60;;;;;;5060376;28;20394;-83
2021/01/08 02:49:09;;;;;;;5.68;2.75;;;1.00;94.70;;;;;;5056521;28;20056;-83
2021/01/08 02:51:36;;;;;;;10.75;2.30;;;1.10;94.60;;;;;;5054005;28;20363;-82
2021/01/08 02:54:04;;;;;;;9.30;4.20;;;1.10;94.60;;;;;;5055594;28;20064;-81
2021/01/08 02:56:35;;;;;;;7.00;3.05;;;1.00;94.60;;;;;;5057658;28;20059;-81
2021/01/08 02:59:03;;;;;;;7.32;3.53;;;1.00;94.70;;;;;;5060749;28;20059;-82
2021/01/08 03:01:31;;;;;;;10.10;3.00;;;1.00;94.80;;;;;;5059761;28;20264;-85
2021/01/08 03:04:00;;;;;;;10.95;3.78;;;0.90;94.90;;;;;;5041933;28;20056;-84
2021/01/08 03:06:29;;;;;;;6.13;2.42;;;0.90;95.10;;;;;;5055608;28;20455;-85
2021/01/08 03:08:56;;;;;;;7.78;3.75;;;1.00;95.20;;;;;;5055300;28;20053;-85
2021/01/08 03:11:23;;;;;;;8.13;3.70;;;1.00;95.20;;;;;;5058021;28;20106;-84
2021/01/08 03:13:51;;;;;;;7.22;2.80;;;1.00;95.30;;;;;;5056340;28;20052;-84
2021/01/08 03:16:17;;;;;;;8.55;3.95;;;1.10;95.00;;;;;;5052590;28;20053;-83
2021/01/08 03:18:45;;;;;;;5.70;2.60;;;1.00;94.90;;;;;;5041523;28;20049;-82
2021/01/08 03:21:14;;;;;;;7.75;2.97;;;1.10;95.10;;;;;;5043044;28;20072;-83
2021/01/08 03:23:41;;;;;;;5.32;3.05;;;1.10;94.90;;;;;;5057129;28;20068;-85
2021/01/08 03:26:08;;;;;;;7.90;3.75;;;1.10;94.90;;;;;;5060443;28;20057;-81
2021/01/08 03:28:35;;;;;;;4.65;2.35;;;1.00;95.00;;;;;;5055816;28;20061;-83
2021/01/08 03:31:04;;;;;;;7.78;3.20;;;0.90;95.30;;;;;;5053288;28;20049;-84
2021/01/08 03:33:31;;;;;;;7.50;3.08;;;0.90;95.10;;;;;;5071546;28;20060;-82
2021/01/08 03:35:59;;;;;;;7.40;4.10;;;1.00;95.40;;;;;;5060968;28;20111;-81
2021/01/08 03:38:26;;;;;;;6.93;3.53;;;0.90;95.30;;;;;;5055739;28;20340;-82
2021/01/08 03:40:53;;;;;;;7.93;3.50;;;1.00;95.40;;;;;;5051801;28;20067;-83
2021/01/08 03:43:23;;;;;;;6.13;3.10;;;0.90;95.20;;;;;;5057182;28;20087;-83
2021/01/08 03:45:51;;;;;;;8.18;3.65;;;1.10;95.00;;;;;;5038524;28;20053;-82
2021/01/08 03:48:20;;;;;;;5.85;3.00;;;0.90;95.20;;;;;;5052898;28;20049;-82
2021/01/08 03:50:50;;;;;;;9.15;4.13;;;1.00;95.20;;;;;;5039889;28;20410;-81
2021/01/08 03:53:17;;;;;;;10.57;3.42;;;1.10;95.00;;;;;;5058496;28;20083;-83
2021/01/08 03:55:44;;;;;;;8.65;2.58;;;1.00;95.20;;;;;;5054524;28;20065;-83
2021/01/08 03:58:11;;;;;;;5.80;2.67;;;0.90;95.50;;;;;;5059633;28;20044;-84
2021/01/08 04:00:38;;;;;;;5.95;3.00;;;0.90;95.60;;;;;;5061449;28;20056;-82
2021/01/08 04:03:05;;;;;;;8.15;3.25;;;0.90;95.60;;;;;;5053404;28;20360;-82
2021/01/08 04:05:32;;;;;;;7.65;2.33;;;1.00;95.50;;;;;;5058781;28;20075;-82
2021/01/08 04:08:03;;;;;;;7.78;3.83;;;1.00;95.40;;;;;;5057294;28;20053;-80
2021/01/08 04:10:30;;;;;;;7.13;3.33;;;1.00;95.20;;;;;;5056066;28;20169;-82
2021/01/08 04:12:57;;;;;;;7.68;3.70;;;1.00;95.10;;;;;;5059009;28;20075;-82
2021/01/08 04:15:24;;;;;;;4.05;1.92;;;1.00;95.20;;;;;;5061314;28;20045;-81
2021/01/08 04:17:51;;;;;;;8.27;3.58;;;1.00;95.10;;;;;;5060822;28;20057;-83
2021/01/08 04:20:17;;;;;;;6.15;2.22;;;0.90;95.60;;;;;;5053244;28;20959;-82
2021/01/08 04:22:44;;;;;;;6.32;3.00;;;0.90;95.40;;;;;;5052352;28;20065;-82
2021/01/08 04:25:12;;;;;;;6.20;2.72;;;1.00;95.40;;;;;;5054275;28;20259;-83
2021/01/08 04:27:40;;;;;;;4.93;2.33;;;1.00;95.50;;;;;;5055020;28;20246;-83
2021/01/08 04:30:08;;;;;;;7.25;3.58;;;1.00;95.80;;;;;;5057861;28;20236;-84
2021/01/08 04:32:36;;;;;;;7.05;3.22;;;1.00;95.60;;;;;;5060794;28;20052;-81
2021/01/08 04:35:06;;;;;;;6.43;2.88;;;0.90;95.70;;;;;;5040969;28;20053;-81
2021/01/08 04:37:34;;;;;;;9.60;2.35;;;1.00;95.60;;;;;;5060071;28;20041;-83
2021/01/08 04:40:01;;;;;;;7.03;2.88;;;0.90;95.70;;;;;;5051735;28;20045;-82
2021/01/08 04:42:28;;;;;;;6.38;2.50;;;0.90;96.00;;;;;;5049892;28;20053;-82
2021/01/08 04:44:56;;;;;;;7.70;2.85;;;0.90;95.90;;;;;;5057870;28;20045;-82
2021/01/08 04:47:23;;;;;;;6.80;3.08;;;1.00;95.80;;;;;;5057426;28;20260;-83
2021/01/08 04:49:50;;;;;;;5.95;2.50;;;1.00;95.70;;;;;;5052360;28;20303;-81
2021/01/08 04:52:19;;;;;;;7.28;2.75;;;1.00;95.80;;;;;;5058409;28;20057;-81
2021/01/08 04:54:46;;;;;;;7.97;2.83;;;1.10;95.70;;;;;;5059031;28;20057;-84
2021/01/08 04:57:16;;;;;;;5.70;2.83;;;1.10;95.50;;;;;;5060969;28;20315;-84
2021/01/08 04:59:43;;;;;;;4.78;2.65;;;1.10;95.60;;;;;;5077375;28;20064;-83
2021/01/08 05:02:11;;;;;;;7.50;3.35;;;1.00;96.00;;;;;;5040819;28;20079;-84
2021/01/08 05:04:39;;;;;;;10.40;3.50;;;1.00;95.90;;;;;;5058230;28;20064;-84
2021/01/08 05:07:07;;;;;;;8.10;2.67;;;1.00;95.70;;;;;;5058916;28;20041;-82
2021/01/08 05:09:34;;;;;;;6.35;3.05;;;1.10;95.80;;;;;;5041255;28;20185;-83
2021/01/08 05:12:01;;;;;;;7.93;2.58;;;1.20;95.60;;;;;;5060763;28;20044;-81
2021/01/08 05:14:28;;;;;;;8.32;2.22;;;1.10;95.60;;;;;;5057760;28;20124;-82
2021/01/08 05:16:56;;;;;;;6.30;2.92;;;1.10;95.50;;;;;;5059824;28;20142;-82
2021/01/08 05:19:24;;;;;;;4.85;2.30;;;1.10;95.60;;;;;;5060338;28;20060;-80
2021/01/08 05:21:56;;;;;;;5.22;2.75;;;1.00;95.80;;;;;;5061451;28;20037;-82
2021/01/08 05:24:23;;;;;;;4.90;2.20;;;1.10;95.70;;;;;;5056032;28;20064;-82
2021/01/08 05:26:50;;;;;;;4.68;2.35;;;1.00;95.70;;;;;;5055831;28;20051;-83
2021/01/08 05:29:17;;;;;;;5.25;2.45;;;1.00;95.90;;;;;;5055979;28;20057;-85
2021/01/08 05:31:46;;;;;;;5.20;2.47;;;1.10;96.00;;;;;;5063440;28;20102;-86
2021/01/08 05:34:13;;;;;;;4.30;1.80;;;1.10;95.90;;;;;;5060164;28;20057;-81
2021/01/08 05:36:41;;;;;;;7.35;3.03;;;1.20;95.60;;;;;;5062007;28;20056;-83
2021/01/08 05:39:08;;;;;;;6.78;3.53;;;1.20;95.70;;;;;;5058432;28;20053;-83
2021/01/08 05:41:35;;;;;;;4.57;1.63;;;1.10;95.50;;;;;;5041351;28;20060;-83
2021/01/08 05:44:01;;;;;;;6.28;2.28;;;1.10;95.50;;;;;;5057477;28;20359;-81
2021/01/08 05:46:34;;;;;;;4.50;2.35;;;1.20;95.40;;;;;;5057158;28;20053;-81
2021/01/08 05:49:02;;;;;;;5.10;2.53;;;1.10;95.60;;;;;;5046266;28;20056;-82
2021/01/08 05:51:31;;;;;;;4.47;2.47;;;1.10;95.40;;;;;;5040461;28;20069;-84
2021/01/08 05:54:02;;;;;;;7.15;3.08;;;1.20;95.50;;;;;;5060454;28;20326;-82
2021/01/08 05:56:35;;;;;;;;;;;1.10;95.40;;;;;;5062213;28;20229;-84
2021/01/08 05:59:08;;;;;;;3.92;1.92;;;1.20;95.50;;;;;;5071529;28;19933;-81
2021/01/08 06:01:37;;;;;;;8.00;3.88;;;1.20;95.20;;;;;;5057169;28;20056;-83
2021/01/08 06:04:04;;;;;;;7.85;2.95;;;1.20;95.50;;;;;;5041980;28;20044;-84
2021/01/08 06:06:39;;;;;;;8.32;2.58;;;1.20;95.20;;;;;;5060952;28;20060;-84
2021/01/08 06:09:11;;;;;;;7.00;2.50;;;1.20;95.10;;;;;;5058543;28;20307;-82
2021/01/08 06:11:43;;;;;;;5.43;2.70;;;1.20;95.20;;;;;;5054993;28;20288;-85
2021/01/08 06:14:11;;;;;;;5.15;2.10;;;1.20;95.20;;;;;;5064431;28;20053;-84
2021/01/08 06:16:45;;;;;;;7.40;2.65;;;1.10;95.20;;;;;;5058453;28;20332;-80
2021/01/08 06:19:14;;;;;;;6.57;3.78;;;1.10;95.20;;;;;;4973482;28;20061;-82
2021/01/08 06:21:42;;;;;;;7.38;2.83;;;1.20;95.30;;;;;;335373;28;10022706;-83
2021/01/08 06:24:17;;;;;;;5.93;2.97;;;1.10;95.20;;;;;;5040749;28;20080;-83
2021/01/08 06:26:47;;;;;;;7.88;2.75;;;1.10;95.30;;;;;;5043092;28;20061;-82
2021/01/08 06:29:18;;;;;;;7.80;3.03;;;1.10;95.40;;;;;;5035072;28;20357;-82
2021/01/08 06:31:49;;;;;;;;;;;1.10;95.70;;;;;;5043474;28;20077;-82
2021/01/08 06:34:23;;;;;;;6.18;2.10;;;1.00;95.70;;;;;;5033577;28;19917;-81
2021/01/08 06:37:03;;;;;;;8.68;3.75;;;1.10;95.60;;;;;;5040742;28;20129;-81
2021/01/08 06:39:35;;;;;;;12.27;2.80;;;1.00;95.70;;;;;;5024655;28;20183;-83
2021/01/08 06:42:03;;;;;;;6.50;2.30;;;1.00;95.80;;;;;;5041255;28;20060;-81
2021/01/08 06:44:31;;;;;;;7.63;2.80;;;1.00;95.80;;;;;;5044982;28;20045;-82
2021/01/08 06:46:59;;;;;;;6.60;3.05;;;1.00;96.20;;;;;;5036276;28;20061;-82
2021/01/08 06:49:26;;;;;;;6.40;2.75;;;1.00;95.90;;;;;;5041962;28;20053;-82
2021/01/08 06:51:53;;;;;;;8.15;3.50;;;1.00;95.80;;;;;;5042856;28;20056;-81
2021/01/08 06:54:20;;;;;;;7.97;4.00;;;1.00;96.00;;;;;;5040811;28;20063;-82
2021/01/08 06:56:48;;;;;;;6.10;2.58;;;1.10;96.00;;;;;;5045207;28;20053;-83
2021/01/08 06:59:17;;;;;;;8.07;3.30;;;1.10;95.70;;;;;;5043567;28;20061;-82
2021/01/08 07:01:53;;;;;;;6.28;2.95;;;1.10;95.90;;;;;;5037714;28;20367;-81
2021/01/08 07:04:22;;;;;;;7.22;3.40;;;1.20;95.70;;;;;;5022613;28;20118;-81
2021/01/08 07:06:50;;;;;;;6.55;2.80;;;1.10;95.80;;;;;;5037468;28;20068;-83
2021/01/08 07:09:17;;;;;;;6.60;2.70;;;1.10;95.90;;;;;;5039740;28;20057;-82
2021/01/08 07:11:54;;;;;;;5.65;2.47;;;1.10;95.90;;;;;;5038841;28;20061;-85
2021/01/08 07:14:23;;;;;;;5.32;2.25;;;1.10;96.00;;;;;;5042327;28;20068;-86
2021/01/08 07:16:52;;;;;;;7.97;3.35;;;1.10;95.80;;;;;;5025158;28;20649;-83
2021/01/08 07:19:20;;;;;;;5.53;3.40;;;1.10;95.80;;;;;;5039991;28;20118;-81
2021/01/08 07:21:49;;;;;;;5.78;2.67;;;1.00;96.00;;;;;;5042884;28;20065;-83
2021/01/08 07:24:18;;;;;;;6.13;2.97;;;1.10;96.00;;;;;;5038987;28;20356;-82
2021/01/08 07:26:47;;;;;;;5.00;2.55;;;1.10;95.90;;;;;;5041667;28;20049;-80
2021/01/08 07:29:15;;;;;;;9.60;3.67;;;1.10;96.00;;;;;;5018904;28;20387;-82
2021/01/08 07:31:43;;;;;;;7.88;3.22;;;1.10;95.80;;;;;;5026335;28;20049;-81
2021/01/08 07:34:10;;;;;;;5.55;2.85;;;1.10;95.90;;;;;;5019524;28;20046;-84
2021/01/08 07:36:38;;;;;;;8.52;3.50;;;1.00;95.80;;;;;;5038808;28;20057;-81
2021/01/08 07:39:26;;;;;;;9.30;3.30;;;1.10;95.80;;;;;;5027021;28;20056;-83
2021/01/08 07:41:53;;;;;;;10.13;3.00;;;1.20;95.80;;;;;;5021505;28;20049;-81
2021/01/08 07:44:34;;;;;;;5.88;2.75;;;1.10;95.90;;;;;;5042784;28;20056;-81
2021/01/08 07:47:21;;;;;;;6.32;2.85;;;1.10;96.00;;;;;;5040438;28;20045;-81
2021/01/08 07:50:06;;;;;;;7.00;3.40;;;1.20;95.90;;;;;;5039561;28;20057;-81
2021/01/08 07:52:41;;;;;;;9.45;3.70;;;1.20;95.80;;;;;;5040173;28;20057;-82
2021/01/08 07:55:09;;;;;;;9.68;3.97;;;1.20;95.50;;;;;;5024176;28;20244;-80
2021/01/08 07:58:04;;;;;;;8.48;4.35;;;1.30;95.70;;;;;;5057190;28;20202;-80
2021/01/08 08:00:35;;;;;;;7.95;3.15;;;1.30;95.10;;;;;;5052828;28;20052;-82
2021/01/08 08:03:03;;;;;;;6.07;3.65;;;1.30;95.40;;;;;;5054814;28;20492;-80
2021/01/08 08:05:31;;;;;;;5.88;3.38;;;1.30;95.50;;;;;;5041340;28;20053;-81
2021/01/08 08:08:00;;;;;;;5.85;2.75;;;1.20;95.50;;;;;;5042476;28;20120;-81
2021/01/08 08:10:30;;;;;;;7.18;3.63;;;1.30;95.60;;;;;;5037620;28;20069;-81
2021/01/08 08:12:57;;;;;;;5.22;2.65;;;1.30;95.60;;;;;;5043794;28;20050;-80
2021/01/08 08:15:24;;;;;;;8.05;3.83;;;1.30;95.60;;;;;;5041117;28;20041;-85
2021/01/08 08:17:53;;;;;;;8.57;2.72;;;1.30;95.50;;;;;;5041825;28;20038;-82
2021/01/08 08:20:21;;;;;;;5.30;3.13;;;1.40;95.20;;;;;;5043227;28;20065;-83
2021/01/08 08:22:50;;;;;;;6.72;3.58;;;1.30;95.30;;;;;;5042634;28;20081;-82
2021/01/08 08:25:34;;;;;;;6.90;3.55;;;1.40;95.30;;;;;;5042651;28;20049;-83
2021/01/08 08:28:04;;;;;;;5.30;2.75;;;1.40;95.40;;;;;;5041892;28;20053;-83
2021/01/08 08:30:31;;;;;;;8.23;3.58;;;1.40;95.10;;;;;;5044030;28;20050;-82
2021/01/08 08:33:00;;;;;;;5.35;2.67;;;1.50;95.30;;;;;;5044390;28;20095;-82
2021/01/08 08:35:29;;;;;;;6.13;2.58;;;1.50;95.00;;;;;;5042032;28;20068;-84
2021/01/08 08:37:57;;;;;;;5.97;2.80;;;1.50;94.90;;;;;;5044049;28;20214;-82
2021/01/08 08:40:26;;;;;;;6.47;2.70;;;1.50;94.70;;;;;;5045139;28;20058;-82
2021/01/08 08:42:54;;;;;;;6.30;3.03;;;1.40;94.80;;;;;;5048849;28;20057;-80
2021/01/08 08:45:23;;;;;;;5.45;2.55;;;1.50;94.80;;;;;;5045871;28;20391;-82
2021/01/08 08:47:57;;;;;;;6.97;3.05;;;1.50;94.80;;;;;;5045252;28;20052;-83
2021/01/08 08:50:26;;;;;;;6.00;2.95;;;1.40;94.80;;;;;;5045490;28;20053;-81
2021/01/08 08:52:53;;;;;;;6.35;2.63;;;1.50;95.20;;;;;;5042823;28;20052;-82
2021/01/08 08:55:28;;;;;;;5.38;2.33;;;1.70;94.60;;;;;;5062518;28;20057;-82
2021/01/08 08:58:04;;;;;;;5.68;3.13;;;1.70;94.00;;;;;;5045050;28;20045;-83
2021/01/08 09:00:34;;;;;;;9.10;3.85;;;1.70;94.20;;;;;;5028111;28;20112;-85
2021/01/08 09:03:16;;;;;;;8.63;3.60;;;1.50;94.40;;;;;;5039409;28;20045;-82
2021/01/08 09:05:46;;;;;;;7.43;2.28;;;1.60;94.60;;;;;;5053742;28;20056;-84
2021/01/08 09:08:21;;;;;;;6.32;3.10;;;1.60;94.50;;;;;;5040019;28;20053;-84
2021/01/08 09:10:52;;;;;;;8.25;2.60;;;1.70;94.20;;;;;;5046080;28;20080;-81
2021/01/08 09:13:21;;;;;;;;;;;1.70;93.90;;;;;;5043539;28;20088;-82
2021/01/08 09:15:57;;;;;;;5.55;2.45;;;1.70;94.10;;;;;;5042852;28;19929;-81
2021/01/08 09:18:36;;;;;;;6.07;2.67;;;1.70;93.90;;;;;;5043353;28;20060;-86
2021/01/08 09:21:11;;;;;;;4.97;2.13;;;1.70;94.20;;;;;;5046488;28;20080;-81
2021/01/08 09:23:43;;;;;;;6.57;3.03;;;1.70;94.20;;;;;;5042771;28;20053;-82
2021/01/08 09:26:10;;;;;;;7.18;3.63;;;1.70;93.90;;;;;;5027343;28;20057;-84
2021/01/08 09:28:42;;;;;;;6.47;2.38;;;1.90;93.40;;;;;;5040433;28;20057;-84
2021/01/08 09:31:09;;;;;;;4.18;2.58;;;2.00;93.20;;;;;;5026930;28;20425;-80
2021/01/08 09:33:36;;;;;;;6.43;3.00;;;2.00;93.50;;;;;;5042933;28;20053;-81
2021/01/08 09:36:05;;;;;;;4.85;2.80;;;2.10;93.30;;;;;;5041433;28;20065;-84
2021/01/08 09:38:33;;;;;;;6.88;2.58;;;2.20;92.20;;;;;;5044851;28;20045;-82
2021/01/08 09:41:01;;;;;;;6.60;2.97;;;2.30;92.50;;;;;;5028249;28;20061;-84
2021/01/08 09:43:29;;;;;;;4.40;2.60;;;2.30;92.40;;;;;;5045411;28;20241;-85
2021/01/08 09:46:07;;;;;;;8.65;2.90;;;2.20;92.60;;;;;;5042809;28;20057;-81
2021/01/08 09:48:39;;;;;;;6.22;3.03;;;2.40;92.30;;;;;;5038169;28;20215;-81
2021/01/08 09:51:10;;;;;;;6.20;3.08;;;2.40;91.90;;;;;;5025276;28;20057;-83
2021/01/08 09:53:38;;;;;;;6.13;3.15;;;2.40;91.20;;;;;;5041727;28;20053;-81
2021/01/08 09:56:16;;;;;;;6.18;2.58;;;2.40;91.80;;;;;;5035683;28;20049;-82
2021/01/08 09:58:43;;;;;;;7.28;2.70;;;2.60;91.50;;;;;;5036631;28;20046;-83
2021/01/08 10:01:13;;;;;;;4.90;2.28;;;2.60;90.70;;;;;;5021708;28;20295;-82
2021/01/08 10:03:41;;;;;;;11.88;3.25;;;2.50;91.30;;;;;;5039860;28;20280;-81
2021/01/08 10:06:14;;;;;;;7.28;3.50;;;2.50;91.40;;;;;;5046255;28;20375;-84
2021/01/08 10:08:43;;;;;;;5.35;2.13;;;2.60;91.30;;;;;;5048795;28;20045;-80
2021/01/08 10:11:26;;;;;;;5.18;3.10;;;2.60;90.80;;;;;;5042442;28;20048;-81
2021/01/08 10:14:02;;;;;;;6.95;3.03;;;2.60;91.20;;;;;;5041573;28;20045;-81
2021/01/08 10:16:37;;;;;;;7.25;2.95;;;2.70;90.30;;;;;;5043851;28;20280;-81
2021/01/08 10:19:07;;;;;;;6.45;3.47;;;2.70;90.80;;;;;;5038070;28;20045;-82
2021/01/08 10:21:42;;;;;;;5.53;2.95;;;2.80;91.00;;;;;;5042075;28;20252;-82
2021/01/08 10:24:09;;;;;;;6.15;3.42;;;2.90;89.90;;;;;;5041665;28;20077;-81
2021/01/08 10:26:36;;;;;;;6.93;3.35;;;2.80;90.30;;;;;;5024208;28;20049;-84
2021/01/08 10:29:06;;;;;;;6.43;3.38;;;2.70;90.40;;;;;;5041542;28;20108;-83
2021/01/08 10:31:34;;;;;;;7.25;3.78;;;2.90;90.70;;;;;;5041459;28;20053;-80
2021/01/08 10:34:02;;;;;;;3.97;2.05;;;2.80;90.30;;;;;;5040250;28;20068;-81
2021/01/08 10:36:30;;;;;;;5.80;2.60;;;2.90;90.50;;;;;;5042956;28;20053;-82
2021/01/08 10:38:58;;;;;;;7.20;3.38;;;3.00;90.10;;;;;;5040928;28;20351;-81
2021/01/08 10:41:25;;;;;;;7.82;2.97;;;3.00;90.00;;;;;;5025207;28;20111;-82
2021/01/08 10:43:51;;;;;;;5.80;2.95;;;3.10;90.00;;;;;;5040217;28;20037;-81
2021/01/08 10:46:21;;;;;;;7.30;3.22;;;3.00;90.10;;;;;;5025328;28;20065;-83
2021/01/08 10:48:50;;;;;;;9.15;2.53;;;3.20;89.20;;;;;;5044422;28;20057;-81
2021/01/08 10:51:17;;;;;;;10.30;4.43;;;3.10;88.90;;;;;;5040484;28;20303;-81
2021/01/08 10:53:43;;;;;;;6.65;2.83;;;2.90;89.40;;;;;;5039812;28;20116;-82
2021/01/08 10:56:11;;;;;;;7.03;3.42;;;2.80;89.70;;;;;;5020604;28;20060;-81
2021/01/08 10:58:39;;;;;;;5.03;2.53;;;2.90;89.80;;;;;;5039832;28;20037;-81
2021/01/08 11:01:05;;;;;;;6.03;2.90;;;2.80;89.60;;;;;;5044389;28;20052;-82
2021/01/08 11:03:33;;;;;;;9.90;4.47;;;2.80;89.90;;;;;;5042399;28;20053;-82
2021/01/08 11:06:00;;;;;;;9.00;3.42;;;2.80;90.00;;;;;;5043676;28;20353;-82
2021/01/08 11:08:35;;;;;;;8.15;3.58;;;3.00;89.50;;;;;;5042092;28;20029;-83
2021/01/08 11:11:03;;;;;;;9.10;3.13;;;3.00;89.40;;;;;;5022037;28;20041;-83
2021/01/08 11:13:32;;;;;;;7.03;3.08;;;2.80;89.50;;;;;;5044342;28;20089;-85
2021/01/08 11:15:59;;;;;;;6.95;3.00;;;2.70;90.20;;;;;;5028050;28;20049;-84
2021/01/08 11:18:26;;;;;;;5.22;2.55;;;2.80;89.80;;;;;;5041289;28;20080;-83
2021/01/08 11:20:54;;;;;;;7.07;3.35;;;2.80;89.50;;;;;;5038891;28;20049;-83
2021/01/08 11:23:21;;;;;;;7.63;3.35;;;2.80;89.90;;;;;;5042621;28;20325;-82
2021/01/08 11:25:49;;;;;;;6.82;3.28;;;2.80;89.80;;;;;;5044407;28;20293;-80
2021/01/08 11:28:19;;;;;;;5.90;3.10;;;2.80;90.10;;;;;;5025490;28;20045;-81
2021/01/08 11:30:50;;;;;;;6.63;2.85;;;2.80;89.80;;;;;;5039169;28;20057;-83
2021/01/08 11:33:16;;;;;;;;;;;2.80;89.80;;;;;;5038624;28;20057;-82
2021/01/08 11:35:43;;;;;;;4.88;2.33;;;2.80;89.80;;;;;;5038565;28;19917;-84
2021/01/08 11:38:12;;;;;;;4.38;2.58;;;2.70;89.30;;;;;;5056334;28;20046;-82
2021/01/08 11:40:40;;;;;;;8.23;3.35;;;2.70;90.00;;;;;;5041024;28;20322;-83
2021/01/08 11:43:10;;;;;;;5.18;3.17;;;2.80;90.10;;;;;;5021654;28;20046;-82
2021/01/08 11:45:38;;;;;;;13.98;3.88;;;2.70;89.90;;;;;;5036930;28;20143;-82
2021/01/08 11:48:07;;;;;;;6.65;2.88;;;2.70;89.90;;;;;;5041886;28;20125;-81
2021/01/08 11:50:34;;;;;;;6.07;3.50;;;2.70;90.20;;;;;;5039066;28;20055;-84
2021/01/08 11:53:02;;;;;;;4.78;2.53;;;2.60;90.10;;;;;;5042016;28;20045;-82
2021/01/08 11:55:29;;;;;;;6.50;3.42;;;2.50;90.40;;;;;;5021393;28;20058;-82
2021/01/08 11:57:56;;;;;;;8.05;3.78;;;2.60;90.50;;;;;;5040364;28;20198;-81
2021/01/08 12:00:23;;;;;;;7.65;3.72;;;2.60;90.50;;;;;;5023434;28;20057;-81
2021/01/08 12:02:50;;;;;;;5.65;2.80;;;2.50;90.60;;;;;;5042879;28;20249;-82
2021/01/08 12:05:22;;;;;;;5.78;3.10;;;2.60;90.60;;;;;;5043873;28;20218;-83
2021/01/08 12:07:49;;;;;;;7.63;3.60;;;2.60;90.70;;;;;;5021067;28;20033;-82
2021/01/08 12:10:16;;;;;;;10.55;4.20;;;2.50;90.60;;;;;;5043367;28;20045;-82
2021/01/08 12:12:43;;;;;;;13.07;4.97;;;2.40;90.90;;;;;;5041016;28;20313;-81
2021/01/08 12:15:12;;;;;;;5.38;2.30;;;2.50;91.50;;;;;;5047174;28;20068;-82
2021/01/08 12:17:42;;;;;;;7.45;3.17;;;2.60;90.40;;;;;;5039051;28;20064;-80
2021/01/08 12:20:10;;;;;;;8.00;3.43;;;2.60;90.30;;;;;;5041158;28;20049;-81
2021/01/08 12:22:40;;;;;;;6.05;3.35;;;2.50;90.50;;;;;;5042203;28;20061;-82
2021/01/08 12:25:08;;;;;;;7.13;3.97;;;2.60;90.70;;;;;;5041214;28;20057;-83
2021/01/08 12:27:35;;;;;;;7.55;3.78;;;2.60;90.50;;;;;;5044807;28;20088;-82
2021/01/08 12:30:02;;;;;;;7.40;3.60;;;2.60;90.70;;;;;;5040312;28;20116;-80
2021/01/08 12:32:28;;;;;;;8.13;3.80;;;2.70;90.40;;;;;;5037426;28;20244;-81
2021/01/08 12:34:56;;;;;;;6.50;2.72;;;2.70;90.20;;;;;;5039229;28;20060;-81
2021/01/08 12:37:24;;;;;;;5.70;2.85;;;2.80;90.40;;;;;;5038508;28;20060;-83
2021/01/08 12:39:51;;;;;;;7.97;3.42;;;2.90;89.70;;;;;;5036415;28;20053;-82
2021/01/08 12:42:18;;;;;;;8.63;3.58;;;2.90;90.30;;;;;;5043272;28;20052;-79
2021/01/08 12:44:45;;;;;;;6.88;3.33;;;3.10;89.50;;;;;;5042122;28;20057;-79
2021/01/08 12:47:13;;;;;;;6.78;3.22;;;3.10;88.10;;;;;;5017290;28;20041;-82
2021/01/08 12:49:40;;;;;;;7.20;2.20;;;3.10;89.20;;;;;;5036466;28;20061;-81
2021/01/08 12:52:06;;;;;;;6.47;3.15;;;3.10;88.90;;;;;;5039111;28;20116;-81
2021/01/08 12:54:34;;;;;;;5.32;2.40;;;3.10;88.50;;;;;;5041713;28;20057;-81
2021/01/08 12:57:02;;;;;;;6.25;2.78;;;3.30;88.60;;;;;;5038397;28;20056;-81
2021/01/08 12:59:30;;;;;;;5.65;2.70;;;3.00;88.60;;;;;;5039485;28;20131;-83
2021/01/08 13:01:57;;;;;;;7.75;2.55;;;3.10;88.60;;;;;;5024012;28;20348;-81
2021/01/08 13:04:26;;;;;;;7.18;2.72;;;3.10;88.30;;;;;;5016832;28;20050;-80
2021/01/08 13:06:53;;;;;;;4.32;1.90;;;3.00;88.40;;;;;;5041616;28;20144;-84